Time;durP1;ratioP1;P1;durP2;ratioP2;P2;SDS_P1;SDS_P2;PMS_P1;PMS_P2;Temp;Humidity;BMP_temperature;BMP_pressure;BME280_temperature;BME280_humidity;BME280_pressure;Samples;Min_cycle;Max_cycle;Signal;HPM_P1;HPM_P2
2022/12/28 00:01:09;;;;;;;;;1.75;1.75;;;;;21.29;36.73;101578.41;5057876;28;45228;-57
2022/12/28 00:03:34;;;;;;;;;2.00;1.50;;;;;21.27;36.66;101572.34;5057713;28;45519;-56
2022/12/28 00:06:00;;;;;;;;;1.75;1.75;;;;;21.29;36.75;101573.13;5057590;28;46155;-58
2022/12/28 00:08:25;;;;;;;;;1.50;1.50;;;;;21.29;37.08;101562.59;5057280;28;45343;-58
2022/12/28 00:10:50;;;;;;;;;3.00;2.00;;;;;21.29;36.92;101557.31;5057419;28;45346;-59
2022/12/28 00:13:16;;;;;;;;;2.50;1.00;;;;;21.28;36.89;101552.09;5039586;28;45548;-58
2022/12/28 00:15:41;;;;;;;;;1.00;1.00;;;;;21.28;36.96;101552.09;5056384;28;67011;-59
2022/12/28 00:18:06;;;;;;;;;1.00;1.00;;;;;21.27;37.06;101545.97;5057084;28;45265;-59
2022/12/28 00:20:31;;;;;;;;;2.00;2.00;;;;;21.26;36.64;101556.63;5056788;28;53447;-58
2022/12/28 00:22:57;;;;;;;;;2.00;2.00;;;;;21.26;37.05;101546.06;5056076;28;45647;-58
2022/12/28 00:25:22;;;;;;;;;3.00;2.00;;;;;21.16;36.76;101525.41;5038908;28;48408;-58
2022/12/28 00:27:47;;;;;;;;;3.33;2.00;;;;;21.23;37.06;101536.50;5056438;28;60245;-55
2022/12/28 00:30:13;;;;;;;;;1.00;1.00;;;;;21.21;37.18;101533.09;5057235;28;45291;-58
2022/12/28 00:32:38;;;;;;;;;2.25;2.00;;;;;21.23;36.75;101533.03;5057239;28;45458;-58
2022/12/28 00:35:04;;;;;;;;;3.00;2.00;;;;;21.21;37.33;101524.31;5057160;28;46163;-59
2022/12/28 00:37:31;;;;;;;;;1.00;1.00;;;;;21.20;37.21;101526.13;5056860;28;45742;-58
2022/12/28 00:39:57;;;;;;;;;1.00;1.00;;;;;21.19;36.96;101519.13;5057073;28;45347;-55
2022/12/28 00:42:22;;;;;;;;;3.00;2.00;;;;;21.15;36.92;101512.28;5057130;28;45633;-57
2022/12/28 00:44:47;;;;;;;;;1.75;1.75;;;;;21.13;36.83;101488.66;5056716;28;46240;-58
2022/12/28 00:47:13;;;;;;;;;1.00;1.00;;;;;21.18;37.12;101506.88;5056622;28;45364;-58
2022/12/28 00:49:38;;;;;;;;;1.00;1.00;;;;;21.18;37.24;101501.59;5056453;28;54026;-58
2022/12/28 00:52:04;;;;;;;;;2.00;1.00;;;;;21.10;37.24;101488.78;5056162;28;52690;-58
2022/12/28 00:54:29;;;;;;;;;2.25;1.00;;;;;21.18;37.04;101496.34;5056704;28;45923;-56
2022/12/28 00:56:54;;;;;;;;;4.00;1.00;;;;;21.16;36.93;101495.53;5056330;28;49819;-58
2022/12/28 00:59:19;;;;;;;;;2.00;2.00;;;;;21.15;37.07;101492.06;5055893;28;61922;-58
2022/12/28 01:01:45;;;;;;;;;1.00;1.00;;;;;21.14;36.94;101493.00;5056684;28;45311;-57
2022/12/28 01:04:10;;;;;;;;;2.50;2.00;;;;;21.14;37.22;101494.75;5056479;28;46103;-57
2022/12/28 01:06:35;;;;;;;;;2.00;1.00;;;;;21.12;37.15;101486.06;5056015;28;67129;-56
2022/12/28 01:09:01;;;;;;;;;1.00;1.00;;;;;21.12;37.13;101480.78;5056573;28;45209;-58
2022/12/28 01:11:28;;;;;;;;;1.75;1.00;;;;;21.12;37.23;101491.34;5056660;28;45238;-57
2022/12/28 01:13:57;;;;;;;;;0.00;0.00;;;;;21.11;37.27;101490.50;5056371;28;46414;-58
2022/12/28 01:16:29;;;;;;;;;2.00;1.00;;;;;21.10;36.99;101480.03;5055009;28;46185;-56
2022/12/28 01:18:57;;;;;;;;;2.25;1.00;;;;;21.09;36.98;101479.16;5056516;28;45225;-57
2022/12/28 01:21:26;;;;;;;;;2.00;1.00;;;;;21.08;37.17;101464.28;5056374;28;45467;-59
2022/12/28 01:23:54;;;;;;;;;1.00;1.00;;;;;21.07;37.29;101469.63;5056232;28;46482;-57
2022/12/28 01:26:19;;;;;;;;;1.00;1.00;;;;;20.98;37.06;101458.59;5056220;28;45274;-58
2022/12/28 01:28:44;;;;;;;;;1.75;1.00;;;;;21.04;37.45;101468.00;5056451;28;45346;-58
2022/12/28 01:31:12;;;;;;;;;2.00;1.00;;;;;21.05;37.32;101468.84;5055728;28;56678;-58
2022/12/28 01:33:38;;;;;;;;;1.75;0.00;;;;;21.04;37.12;101461.88;5056488;28;45443;-59
2022/12/28 01:36:08;;;;;;;;;1.00;1.00;;;;;21.00;37.20;101459.38;5056424;28;45827;-57
2022/12/28 01:38:35;;;;;;;;;0.00;0.00;;;;;21.01;36.93;101471.63;5056724;28;45229;-58
2022/12/28 01:41:01;;;;;;;;;0.50;0.50;;;;;20.95;37.27;101466.66;5056401;28;45529;-60
2022/12/28 01:43:45;;;;;;;;;2.00;2.00;;;;;21.00;36.88;101467.28;5055863;28;45402;-59
2022/12/28 01:46:19;;;;;;;;;2.00;1.00;;;;;20.99;37.42;101470.88;5055919;28;45804;-58
2022/12/28 01:48:56;;;;;;;;;2.50;1.00;;;;;20.92;37.16;101463.31;5056319;28;45766;-58
2022/12/28 01:51:23;;;;;;;;;1.75;1.50;;;;;20.97;37.57;101472.72;5056323;28;45360;-57
2022/12/28 01:53:51;;;;;;;;;1.00;1.00;;;;;20.97;37.73;101480.63;5055924;28;45487;-57
2022/12/28 01:56:16;;;;;;;;;2.75;1.00;;;;;20.95;37.65;101471.91;5055854;28;45665;-56
2022/12/28 01:58:42;;;;;;;;;2.50;1.00;;;;;20.94;37.42;101467.56;5056017;28;45228;-58
2022/12/28 02:01:08;;;;;;;;;0.00;0.00;;;;;20.92;37.46;101450.13;5056305;28;45592;-58
2022/12/28 02:03:35;;;;;;;;;1.00;1.00;;;;;20.91;37.57;101456.34;5057236;28;45342;-57
2022/12/28 02:06:05;;;;;;;;;1.00;1.00;;;;;20.92;37.54;101460.69;5059364;28;45356;-58
2022/12/28 02:09:09;;;;;;;;;1.50;1.00;;;;;20.90;37.85;101455.47;5059489;28;45244;-59
2022/12/28 02:11:36;;;;;;;;;2.00;2.00;;;;;20.87;37.59;101455.63;4958310;28;45422;-58
2022/12/28 02:14:03;;;;;;;;;1.00;1.00;;;;;20.87;37.80;101445.09;5041565;28;46425;-58
2022/12/28 02:16:29;;;;;;;;;1.75;1.00;;;;;20.85;37.89;101452.19;5059206;28;45242;-59
2022/12/28 02:18:54;;;;;;;;;1.00;1.00;;;;;20.84;37.49;101446.06;5059216;28;45312;-58
2022/12/28 02:21:41;;;;;;;;;1.00;1.00;;;;;20.83;37.41;101447.03;5059111;28;45458;-58
2022/12/28 02:24:42;;;;;;;;;1.00;1.00;;;;;20.83;37.83;101448.78;5059090;28;46347;-59
2022/12/28 02:27:19;;;;;;;;;3.00;2.00;;;;;20.81;37.94;101443.59;5059381;28;45812;-58
2022/12/28 02:30:00;;;;;;;;;1.00;1.00;;;;;20.80;37.70;101441.88;5059106;28;45304;-58
2022/12/28 02:32:52;;;;;;;;;1.00;1.00;;;;;20.79;37.84;101436.66;5059109;28;45335;-56
2022/12/28 02:35:50;;;;;;;;;1.00;1.00;;;;;20.71;37.54;101421.22;5045457;28;46227;-57
2022/12/28 02:38:29;;;;;;;;;2.50;1.00;;;;;20.77;37.64;101433.28;5058880;28;45429;-58
2022/12/28 02:41:07;;;;;;;;;1.75;1.00;;;;;20.75;37.91;101430.69;5058719;28;45281;-58
2022/12/28 02:43:33;;;;;;;;;1.00;1.00;;;;;20.74;37.98;101421.06;5059125;28;45288;-57
2022/12/28 02:50:05;;;;;;;;;1.00;1.00;;;;;20.66;38.02;101405.63;5058601;28;45324;-58
2022/12/28 02:52:20;;;;;;;;;1.00;1.00;;;;;20.72;38.13;101409.75;5058767;28;45466;-58
2022/12/28 02:58:18;;;;;;;;;0.75;0.75;;;;;20.71;37.88;101413.31;5058456;28;45268;-59
2022/12/28 03:00:52;;;;;;;;;2.00;1.00;;;;;20.69;37.99;101413.38;5058660;28;45561;-58
2022/12/28 03:03:35;;;;;;;;;3.00;1.25;;;;;20.69;38.00;101408.09;5058604;28;45327;-59
2022/12/28 03:09:18;;;;;;;;;2.00;0.25;;;;;20.61;38.11;101385.69;5058256;28;45414;-57
2022/12/28 03:11:53;;;;;;;;;1.00;1.00;;;;;20.61;38.00;101389.16;5058734;28;45411;-59
2022/12/28 03:14:42;;;;;;;;;1.50;1.50;;;;;20.66;37.90;101394.22;5058143;28;45431;-59
2022/12/28 03:31:16;;;;;;;;;0.75;0.75;;;;;20.61;37.85;101381.28;5057945;28;45361;-58
2022/12/28 03:33:48;;;;;;;;;2.50;1.00;;;;;20.59;38.26;101385.75;5040379;28;45896;-56
2022/12/28 03:36:24;;;;;;;;;1.00;1.00;;;;;20.60;38.31;101384.00;5058327;28;45256;-58
2022/12/28 03:39:02;;;;;;;;;1.00;1.00;;;;;20.59;38.13;101369.94;5058481;28;45540;-58
2022/12/28 03:41:32;;;;;;;;;1.25;0.75;;;;;20.57;38.32;101368.31;5057583;28;46343;-56
2022/12/28 03:44:06;;;;;;;;;2.00;2.00;;;;;20.58;38.32;101364.75;5057834;28;45740;-58
2022/12/28 03:46:42;;;;;;;;;1.00;1.00;;;;;20.55;38.20;101361.34;5039867;28;45266;-58
2022/12/28 03:49:08;;;;;;;;;1.00;1.00;;;;;20.48;38.06;101346.78;5058108;28;45314;-58
2022/12/28 03:51:34;;;;;;;;;1.00;1.00;;;;;20.53;38.29;101355.28;5057451;28;46558;-57
2022/12/28 03:53:59;;;;;;;;;0.75;0.75;;;;;20.48;38.47;101348.53;5057730;28;45449;-56
2022/12/28 03:56:26;;;;;;;;;1.00;1.00;;;;;20.50;38.03;101350.19;5039761;28;45558;-59
2022/12/28 03:58:52;;;;;;;;;3.00;1.00;;;;;20.51;38.48;101351.03;5057886;28;45324;-58
2022/12/28 04:01:18;;;;;;;;;1.00;1.00;;;;;20.45;38.31;101344.28;5057543;28;46295;-58
2022/12/28 04:03:44;;;;;;;;;2.00;2.00;;;;;20.51;38.37;101351.03;5057841;28;45428;-59
2022/12/28 04:06:18;;;;;;;;;1.50;1.50;;;;;20.50;38.30;101352.81;5057614;28;45495;-58
2022/12/28 04:08:44;;;;;;;;;1.00;1.00;;;;;20.50;38.69;101351.94;5057939;28;45574;-58
2022/12/28 04:11:10;;;;;;;;;1.00;1.00;;;;;20.50;38.70;101346.69;5057259;28;46106;-59
2022/12/28 04:13:35;;;;;;;;;1.00;1.00;;;;;20.49;38.31;101339.72;5057287;28;45283;-58
2022/12/28 04:16:04;;;;;;;;;1.50;1.50;;;;;20.48;38.37;101335.38;5057213;28;45367;-58
2022/12/28 04:18:32;;;;;;;;;1.75;1.75;;;;;20.48;38.77;101338.00;5057613;28;45617;-57
2022/12/28 04:20:58;;;;;;;;;0.75;0.75;;;;;20.40;38.62;101322.56;5056744;28;47101;-59
2022/12/28 04:23:23;;;;;;;;;1.00;1.00;;;;;20.48;38.41;101332.72;5057166;28;45441;-58
2022/12/28 04:25:59;;;;;;;;;1.00;1.00;;;;;20.47;38.50;101328.41;5056743;28;45418;-59
2022/12/28 04:28:25;;;;;;;;;2.50;2.00;;;;;20.45;38.40;101317.94;5057396;28;45516;-57
2022/12/28 04:30:50;;;;;;;;;1.50;1.00;;;;;20.45;38.28;101314.47;5056956;28;45247;-58
2022/12/28 04:33:15;;;;;;;;;1.00;1.00;;;;;20.45;38.27;101323.22;5057241;28;45383;-56
2022/12/28 04:35:41;;;;;;;;;1.00;1.00;;;;;20.45;38.61;101319.75;5056860;28;48476;-61
2022/12/28 04:38:06;;;;;;;;;2.00;2.00;;;;;20.44;38.23;101304.88;5056853;28;47829;-58
2022/12/28 04:40:31;;;;;;;;;1.00;1.00;;;;;20.43;38.64;101305.78;5056744;28;45997;-57
2022/12/28 04:42:56;;;;;;;;;1.00;1.00;;;;;20.43;38.55;101308.41;5056384;28;59820;-58
2022/12/28 04:45:22;;;;;;;;;1.00;1.00;;;;;20.37;38.88;101302.50;5056125;28;62404;-57
2022/12/28 04:47:47;;;;;;;;;1.00;1.00;;;;;20.41;38.88;101305.00;5056643;28;59526;-58
2022/12/28 04:50:12;;;;;;;;;1.33;1.33;;;;;20.35;38.94;101296.44;5055833;28;69819;-57
2022/12/28 04:52:38;;;;;;;;;1.50;1.00;;;;;20.39;38.49;101312.97;5056299;28;52747;-58
2022/12/28 04:55:03;;;;;;;;;0.00;0.00;;;;;20.38;38.59;101306.84;5056085;28;61065;-57
2022/12/28 04:57:28;;;;;;;;;1.00;1.00;;;;;20.39;39.12;101298.03;5057048;28;45543;-59
2022/12/28 04:59:54;;;;;;;;;0.00;0.00;;;;;20.38;38.46;101301.56;5056373;28;51095;-59
2022/12/28 05:02:19;;;;;;;;;1.00;1.00;;;;;20.37;38.98;101289.34;5056220;28;63398;-60
2022/12/28 05:04:44;;;;;;;;;1.00;1.00;;;;;20.31;38.99;101275.63;5056186;28;55695;-58
2022/12/28 05:07:10;;;;;;;;;0.75;0.75;;;;;20.28;38.93;101276.63;5056610;28;45315;-59
2022/12/28 05:09:35;;;;;;;;;2.67;0.00;;;;;20.32;38.65;101278.19;5055617;28;69696;-59
2022/12/28 05:12:00;;;;;;;;;0.00;0.00;;;;;20.36;38.79;101281.53;5055677;28;62468;-57
2022/12/28 05:14:25;;;;;;;;;1.00;1.00;;;;;20.36;38.64;101273.63;5055913;28;57431;-56
2022/12/28 05:16:51;;;;;;;;;0.75;0.75;;;;;20.36;38.91;101274.47;5056205;28;56594;-59
2022/12/28 05:19:16;;;;;;;;;0.50;0.25;;;;;20.37;39.08;101272.72;5056118;28;50869;-57
2022/12/28 05:21:41;;;;;;;;;1.00;1.00;;;;;20.43;39.02;101274.19;5056127;28;45339;-57
2022/12/28 05:24:07;;;;;;;;;1.00;1.00;;;;;20.46;38.64;101274.03;5056361;28;45422;-58
2022/12/28 05:26:33;;;;;;;;;1.00;1.00;;;;;20.50;38.84;101272.97;5056659;28;45346;-58
2022/12/28 05:28:59;;;;;;;;;0.75;0.75;;;;;20.53;38.84;101273.66;5037955;28;45846;-58
2022/12/28 05:31:25;;;;;;;;;1.00;1.00;;;;;20.59;39.21;101271.66;5038134;28;45351;-59
2022/12/28 05:33:52;;;;;;;;;2.25;1.00;;;;;20.62;39.13;101269.72;5056555;28;45265;-59
2022/12/28 05:36:23;;;;;;;;;1.00;1.00;;;;;20.65;38.66;101260.81;5056454;28;45466;-59
2022/12/28 05:38:50;;;;;;;;;1.00;1.00;;;;;20.70;38.96;101258.81;5059629;28;46369;-60
2022/12/28 05:41:19;;;;;;;;;1.00;1.00;;;;;20.65;38.88;101245.88;5059811;28;45411;-58
2022/12/28 05:43:45;;;;;;;;;1.00;1.00;;;;;20.78;38.95;101258.50;5059906;28;45162;-55
2022/12/28 05:46:18;;;;;;;;;1.00;1.00;;;;;20.73;38.53;101252.53;5059935;28;45339;-59
2022/12/28 05:48:43;;;;;;;;;1.00;1.00;;;;;20.83;39.13;101259.09;5059444;28;46386;-56
2022/12/28 05:51:14;;;;;;;;;2.75;1.00;;;;;20.85;38.72;101249.34;5059639;28;45224;-56
2022/12/28 05:53:40;;;;;;;;;2.00;1.00;;;;;20.87;38.53;101258.03;5059658;28;45401;-58
2022/12/28 05:56:18;;;;;;;;;1.00;1.00;;;;;20.88;38.93;101257.09;5041727;28;45303;-59
2022/12/28 05:58:45;;;;;;;;;2.00;1.25;;;;;20.89;38.51;101250.03;5059402;28;45458;-58
2022/12/28 06:01:13;;;;;;;;;3.00;2.00;;;;;20.89;38.69;101253.50;5059371;28;45788;-58
2022/12/28 06:03:39;;;;;;;;;4.25;3.00;;;;;20.89;38.58;101242.97;5059565;28;45276;-58
2022/12/28 06:06:16;;;;;;;;;4.00;3.25;;;;;20.91;38.40;101243.75;5059527;28;45253;-58
2022/12/28 06:08:42;;;;;;;;;6.00;6.00;;;;;20.90;38.95;101244.66;5059375;28;45375;-57
2022/12/28 06:11:11;;;;;;;;;4.75;4.75;;;;;20.91;38.50;101241.09;5059304;28;45812;-56
2022/12/28 06:13:37;;;;;;;;;5.25;5.25;;;;;20.85;38.72;101230.91;5058839;28;45457;-58
2022/12/28 06:16:07;;;;;;;;;6.50;5.50;;;;;20.91;38.65;101235.00;5059477;28;45453;-58
2022/12/28 06:18:33;;;;;;;;;3.75;3.75;;;;;20.91;38.97;101225.31;5058910;28;46281;-59
2022/12/28 06:21:07;;;;;;;;;5.00;3.25;;;;;20.92;38.95;101224.38;5058857;28;45758;-59
2022/12/28 06:23:33;;;;;;;;;3.25;3.25;;;;;20.92;38.64;101227.00;5041189;28;45384;-57
2022/12/28 06:26:00;;;;;;;;;5.50;4.00;;;;;20.91;38.71;101212.13;5040954;28;45291;-56
2022/12/28 06:28:26;;;;;;;;;7.75;3.75;;;;;20.92;38.73;101213.00;5059250;28;47139;-58
2022/12/28 06:30:51;;;;;;;;;4.00;4.00;;;;;20.93;39.07;101212.06;5040557;28;45352;-57
2022/12/28 06:33:16;;;;;;;;;6.00;6.00;;;;;20.91;38.93;101212.13;5058518;28;58979;-57
2022/12/28 06:35:42;;;;;;;;;5.33;4.33;;;;;20.92;38.88;101208.56;5058350;28;59192;-58
2022/12/28 06:38:07;;;;;;;;;3.00;3.00;;;;;20.89;38.77;101200.81;5057891;28;70712;-58
2022/12/28 06:40:32;;;;;;;;;4.00;4.00;;;;;20.84;38.72;101190.50;5058011;28;64155;-57
2022/12/28 06:42:58;;;;;;;;;4.00;3.75;;;;;20.82;39.08;101187.13;5058419;28;50310;-56
2022/12/28 06:45:23;;;;;;;;;3.00;3.00;;;;;20.89;38.87;101192.06;5058838;28;46136;-58
2022/12/28 06:47:48;;;;;;;;;4.25;4.25;;;;;20.82;38.96;101183.63;5058545;28;46145;-58
2022/12/28 06:50:14;;;;;;;;;4.00;3.50;;;;;20.88;39.07;101188.59;5057928;28;45450;-56
2022/12/28 06:52:39;;;;;;;;;4.50;2.75;;;;;20.87;38.73;101184.25;5058652;28;45383;-61
2022/12/28 06:55:05;;;;;;;;;4.00;4.00;;;;;20.81;39.21;101174.88;5058312;28;49350;-56
2022/12/28 06:57:30;;;;;;;;;4.00;4.00;;;;;20.86;39.04;101179.91;5058038;28;45442;-56
2022/12/28 06:59:55;;;;;;;;;6.25;4.75;;;;;20.80;39.08;101175.81;5058527;28;51589;-56
2022/12/28 07:02:21;;;;;;;;;2.25;2.25;;;;;20.84;38.81;101172.06;5058157;28;46859;-58
2022/12/28 07:04:46;;;;;;;;;4.00;3.00;;;;;20.85;39.22;101179.03;5058662;28;45330;-57
2022/12/28 07:07:11;;;;;;;;;3.00;3.00;;;;;20.86;38.67;101172.00;5056982;28;45371;-58
2022/12/28 07:09:37;;;;;;;;;4.00;3.00;;;;;20.85;39.11;101179.03;5057955;28;51609;-58
2022/12/28 07:12:02;;;;;;;;;3.00;3.00;;;;;20.83;39.00;101161.63;5058437;28;45243;-57
2022/12/28 07:14:27;;;;;;;;;3.25;2.75;;;;;20.85;38.98;101167.66;5058973;28;45457;-57
2022/12/28 07:16:53;;;;;;;;;3.00;2.67;;;;;20.82;39.31;101157.28;5057373;28;65206;-58
2022/12/28 07:19:18;;;;;;;;;2.25;2.25;;;;;20.82;39.37;101152.88;5058037;28;50287;-58
2022/12/28 07:21:43;;;;;;;;;3.00;3.00;;;;;20.82;38.76;101155.50;5039931;28;45404;-58
2022/12/28 07:24:09;;;;;;;;;5.00;3.00;;;;;20.74;39.24;101139.22;5058017;28;49750;-57
2022/12/28 07:26:36;;;;;;;;;2.00;2.00;;;;;20.80;39.32;101145.97;5057969;28;45273;-57
2022/12/28 07:29:04;;;;;;;;;3.00;3.00;;;;;20.80;38.78;101143.31;5058039;28;45445;-57
2022/12/28 07:31:36;;;;;;;;;2.00;1.25;;;;;20.79;38.98;101136.34;5058457;28;45427;-58
2022/12/28 07:34:01;;;;;;;;;2.75;2.00;;;;;20.78;39.00;101139.94;5058188;28;45467;-60
2022/12/28 07:36:28;;;;;;;;;2.00;2.00;;;;;20.77;39.11;101133.81;5058225;28;47216;-59
2022/12/28 07:38:55;;;;;;;;;2.25;2.25;;;;;20.77;38.91;101130.34;5039962;28;45315;-58
2022/12/28 07:41:32;;;;;;;;;2.25;2.25;;;;;20.69;39.26;101118.38;5058010;28;45499;-61
2022/12/28 07:43:58;;;;;;;;;3.50;2.00;;;;;20.73;39.27;101126.94;5058465;28;45313;-57
2022/12/28 07:46:28;;;;;;;;;2.50;2.25;;;;;20.73;39.31;101120.84;5057737;28;46127;-60
2022/12/28 07:48:55;;;;;;;;;2.75;1.50;;;;;20.72;39.33;101127.91;5057795;28;45310;-60
2022/12/28 07:51:22;;;;;;;;;1.00;1.00;;;;;20.71;38.89;101118.31;5057790;28;45309;-59
2022/12/28 07:53:50;;;;;;;;;1.25;1.00;;;;;20.72;39.32;101124.41;5058027;28;45540;-58
2022/12/28 07:56:16;;;;;;;;;1.00;1.00;;;;;20.69;39.22;101109.63;5057610;28;45447;-57
2022/12/28 07:58:41;;;;;;;;;2.00;2.00;;;;;20.64;39.33;101106.38;5057562;28;45790;-58
2022/12/28 08:01:08;;;;;;;;;2.25;2.00;;;;;20.68;39.00;101116.66;5056361;28;45869;-58
2022/12/28 08:03:34;;;;;;;;;2.00;2.00;;;;;20.68;39.49;101108.75;5057723;28;45533;-58
2022/12/28 08:06:11;;;;;;;;;1.75;1.75;;;;;20.68;39.56;101118.44;5057690;28;46197;-58
2022/12/28 08:08:40;;;;;;;;;2.25;2.25;;;;;20.68;39.48;101113.19;5057404;28;45879;-59
2022/12/28 08:11:09;;;;;;;;;2.00;2.00;;;;;20.65;39.43;101101.03;5057474;28;45474;-58
2022/12/28 08:13:36;;;;;;;;;2.50;2.00;;;;;20.67;39.47;101106.22;5057552;28;45590;-58
2022/12/28 08:16:02;;;;;;;;;3.50;1.25;;;;;20.65;38.99;101098.41;5057514;28;46231;-58
2022/12/28 08:18:28;;;;;;;;;2.00;2.00;;;;;20.64;39.37;101101.09;5057349;28;45559;-60
2022/12/28 08:20:54;;;;;;;;;3.75;1.75;;;;;20.64;39.57;101094.06;5057289;28;45352;-58
2022/12/28 08:23:19;;;;;;;;;2.00;1.00;;;;;20.63;39.59;101089.72;5057397;28;45333;-57
2022/12/28 08:25:45;;;;;;;;;4.00;3.00;;;;;20.62;39.25;101090.66;5057003;28;45237;-59
2022/12/28 08:28:10;;;;;;;;;5.00;4.00;;;;;20.61;39.65;101086.31;5057151;28;45393;-57
2022/12/28 08:30:35;;;;;;;;;4.25;2.75;;;;;20.61;39.73;101091.56;5057349;28;45311;-59
2022/12/28 08:33:01;;;;;;;;;5.00;3.25;;;;;20.52;39.57;101066.56;5057669;28;45609;-59
2022/12/28 08:35:26;;;;;;;;;3.75;3.00;;;;;20.52;39.70;101077.09;5056905;28;46137;-60
2022/12/28 08:37:55;;;;;;;;;2.00;2.00;;;;;20.51;39.38;101069.28;5056858;28;45351;-59
2022/12/28 08:40:26;;;;;;;;;3.00;3.00;;;;;20.57;39.73;101074.22;5057096;28;45337;-58
2022/12/28 08:42:51;;;;;;;;;3.50;3.25;;;;;20.49;39.65;101060.59;5056889;28;45600;-57
2022/12/28 08:45:17;;;;;;;;;2.00;2.00;;;;;20.50;39.46;101062.31;5056761;28;46845;-58
2022/12/28 08:47:42;;;;;;;;;1.67;1.67;;;;;20.57;39.90;101073.38;5056211;28;61548;-57
2022/12/28 08:50:08;;;;;;;;;2.50;2.50;;;;;20.59;39.60;101071.53;5056886;28;45302;-58
2022/12/28 08:52:33;;;;;;;;;2.00;2.00;;;;;20.58;39.59;101075.09;5057277;28;45478;-60
2022/12/28 08:54:58;;;;;;;;;4.33;3.00;;;;;20.58;39.80;101075.94;5056050;28;64841;-57
2022/12/28 08:57:24;;;;;;;;;3.00;3.00;;;;;20.45;39.92;101054.66;5056284;28;55884;-58
2022/12/28 08:59:49;;;;;;;;;4.00;2.00;;;;;20.57;39.86;101076.84;5056521;28;48433;-58
2022/12/28 09:02:14;;;;;;;;;1.50;1.50;;;;;20.57;39.81;101071.59;5056235;28;54335;-56
2022/12/28 09:04:40;;;;;;;;;4.00;2.00;;;;;20.57;39.50;101063.69;5056453;28;45461;-54
2022/12/28 09:07:06;;;;;;;;;2.50;2.00;;;;;20.60;40.21;101067.97;5056645;28;45735;-56
2022/12/28 09:09:33;;;;;;;;;2.75;2.75;;;;;20.59;40.04;101051.31;5056089;28;45363;-56
2022/12/28 09:11:58;;;;;;;;;2.75;2.75;;;;;20.63;39.52;101058.13;5056360;28;45534;-58
2022/12/28 09:14:24;;;;;;;;;3.00;2.00;;;;;20.64;39.86;101056.31;5056345;28;46256;-62
2022/12/28 09:16:49;;;;;;;;;2.75;2.50;;;;;20.65;40.06;101050.13;5056557;28;45237;-62
2022/12/28 09:19:15;;;;;;;;;5.00;3.00;;;;;20.60;40.11;101042.47;5056644;28;45276;-65
2022/12/28 09:21:40;;;;;;;;;3.00;3.00;;;;;20.63;40.07;101044.94;5056310;28;45337;-61
2022/12/28 09:24:07;;;;;;;;;3.00;2.25;;;;;20.71;40.31;101049.81;5056278;28;46537;-59
2022/12/28 09:26:37;;;;;;;;;3.75;2.50;;;;;20.73;40.28;101047.09;5056681;28;45286;-66
2022/12/28 09:29:05;;;;;;;;;2.50;1.50;;;;;20.67;39.84;101022.78;5056791;28;45202;-62
2022/12/28 09:31:32;;;;;;;;;3.75;2.00;;;;;20.76;40.17;101036.44;5038431;28;45344;-69
2022/12/28 09:33:57;;;;;;;;;2.50;2.50;;;;;20.78;40.09;101031.94;5056327;28;46182;-69
2022/12/28 09:36:24;;;;;;;;;4.00;3.00;;;;;20.79;40.02;101041.53;5055965;28;45311;-62
2022/12/28 09:38:50;;;;;;;;;4.25;2.00;;;;;20.80;40.10;101038.81;5056271;28;45289;-67
2022/12/28 09:41:29;;;;;;;;;2.00;1.25;;;;;20.81;40.13;101034.41;5056304;28;45581;-64
2022/12/28 09:44:15;;;;;;;;;4.00;2.00;;;;;20.82;39.47;101034.34;5055846;28;46421;-68
2022/12/28 09:46:47;;;;;;;;;4.00;2.00;;;;;20.82;39.67;101034.34;5055996;28;45480;-71
2022/12/28 09:49:17;;;;;;;;;4.00;3.00;;;;;20.84;39.96;101034.25;5056216;28;45304;-65
2022/12/28 09:52:07;;;;;;;;;3.00;2.00;;;;;20.84;40.02;101040.34;5056013;28;45430;-63
2022/12/28 09:54:33;;;;;;;;;2.25;2.25;;;;;20.86;39.68;101037.66;5055988;28;45234;-68
2022/12/28 09:56:58;;;;;;;;;1.75;1.75;;;;;20.86;39.64;101037.66;5056067;28;45231;-58
2022/12/28 09:59:30;;;;;;;;;4.50;2.00;;;;;20.86;39.58;101042.91;5056257;28;45712;-58
2022/12/28 10:01:59;;;;;;;;;3.25;1.75;;;;;20.79;39.68;101028.34;5056094;28;45241;-57
2022/12/28 10:04:25;;;;;;;;;5.50;2.25;;;;;20.83;39.94;101025.50;5055684;28;46169;-63
2022/12/28 10:06:51;;;;;;;;;0.75;0.75;;;;;20.87;39.57;101028.81;5054999;28;45900;-56
2022/12/28 10:09:28;;;;;;;;;3.25;2.00;;;;;20.88;39.57;101025.25;5055885;28;45268;-59
2022/12/28 10:11:54;;;;;;;;;1.00;1.00;;;;;20.87;39.17;101018.28;5055990;28;45341;-55
2022/12/28 10:14:26;;;;;;;;;1.00;1.00;;;;;20.81;39.70;101019.47;5055565;28;45331;-60
2022/12/28 10:16:51;;;;;;;;;3.00;2.25;;;;;20.88;39.84;101024.38;5037494;28;45866;-60
2022/12/28 10:19:22;;;;;;;;;3.00;2.00;;;;;20.66;39.82;100978.97;5055729;28;45410;-64
2022/12/28 10:21:56;;;;;;;;;2.00;2.00;;;;;20.89;39.13;101012.91;5055592;28;45415;-65
2022/12/28 10:24:23;;;;;;;;;3.00;1.00;;;;;20.87;39.39;101007.75;5056402;28;45522;-65
2022/12/28 10:26:48;;;;;;;;;1.75;1.75;;;;;20.88;39.48;101011.22;5059050;28;45329;-64
2022/12/28 10:29:22;;;;;;;;;1.00;1.00;;;;;20.87;39.65;101006.88;5058373;28;59588;-66
2022/12/28 10:32:07;;;;;;;;;4.00;1.00;;;;;20.85;39.31;100994.63;5059378;28;45500;-64
2022/12/28 10:34:35;;;;;;;;;3.75;2.00;;;;;20.85;39.33;100994.63;5057199;28;46220;-59
2022/12/28 10:37:11;;;;;;;;;1.00;1.00;;;;;20.86;39.76;101000.75;5058264;28;45251;-57
2022/12/28 10:39:36;;;;;;;;;3.00;2.00;;;;;20.85;39.38;101006.97;5020906;28;45410;-62
2022/12/28 10:42:02;;;;;;;;;2.75;1.00;;;;;20.84;39.29;100998.19;5038590;28;45673;-66
2022/12/28 10:44:34;;;;;;;;;1.25;1.00;;;;;20.83;39.60;100985.97;5038418;28;45317;-57
2022/12/28 10:47:05;;;;;;;;;3.25;2.75;;;;;20.77;39.50;100974.94;5038219;28;45270;-59
2022/12/28 10:49:35;;;;;;;;;1.25;1.00;;;;;20.83;39.34;100985.13;5038548;28;45385;-58
2022/12/28 10:52:05;;;;;;;;;3.50;2.00;;;;;20.83;39.58;100980.72;5038404;28;45529;-56
2022/12/28 10:54:33;;;;;;;;;1.50;1.50;;;;;20.83;39.67;100966.69;5038256;28;46343;-59
2022/12/28 10:56:58;;;;;;;;;2.00;1.00;;;;;20.81;39.48;100968.53;5038173;28;45716;-58
2022/12/28 10:59:27;;;;;;;;;2.00;1.00;;;;;20.82;39.58;100976.38;5038264;28;45227;-59
2022/12/28 11:01:57;;;;;;;;;1.00;1.00;;;;;20.82;39.26;100973.75;5038023;28;45368;-59
2022/12/28 11:04:24;;;;;;;;;1.75;1.00;;;;;20.82;39.55;100962.34;5037831;28;46294;-61
2022/12/28 11:07:00;;;;;;;;;1.00;1.00;;;;;20.82;39.66;100964.97;5019889;28;45336;-61
2022/12/28 11:09:29;;;;;;;;;1.00;1.00;;;;;20.82;39.56;100952.66;5038056;28;45372;-60
2022/12/28 11:12:16;;;;;;;;;1.25;1.00;;;;;20.82;39.66;100947.41;5038174;28;45459;-58
2022/12/28 11:14:41;;;;;;;;;2.00;2.00;;;;;20.74;39.25;100928.50;5038341;28;46460;-59
2022/12/28 11:17:23;;;;;;;;;3.00;1.25;;;;;20.83;39.23;100932.44;5037518;28;45317;-63
2022/12/28 11:19:56;;;;;;;;;1.00;1.00;;;;;20.76;39.26;100904.75;5037778;28;45437;-58
2022/12/28 11:22:27;;;;;;;;;1.00;1.00;;;;;20.84;39.48;100910.44;5038243;28;45411;-55
2022/12/28 11:24:54;;;;;;;;;2.00;1.00;;;;;20.82;39.46;100899.13;5037887;28;45289;-58
2022/12/28 11:27:22;;;;;;;;;1.00;1.00;;;;;20.82;39.76;100883.31;5019646;28;45363;-60
2022/12/28 11:29:50;;;;;;;;;2.00;1.00;;;;;20.84;39.75;100889.34;5037983;28;45443;-65
2022/12/28 11:32:31;;;;;;;;;3.00;1.00;;;;;20.85;39.40;100885.78;5038121;28;45499;-59
2022/12/28 11:34:57;;;;;;;;;1.00;1.00;;;;;20.81;39.71;100876.34;5037253;28;46330;-70
2022/12/28 11:37:22;;;;;;;;;1.00;1.00;;;;;20.85;39.27;100872.63;5037596;28;45889;-68
2022/12/28 11:39:50;;;;;;;;;1.00;1.00;;;;;20.86;39.54;100879.59;5037828;28;45315;-58
2022/12/28 11:42:30;;;;;;;;;1.00;1.00;;;;;20.85;39.48;100877.88;5037920;28;45574;-59
2022/12/28 11:44:56;;;;;;;;;1.00;1.00;;;;;20.85;38.91;100867.34;5037371;28;49652;-58
2022/12/28 11:47:32;;;;;;;;;2.00;1.00;;;;;20.86;39.33;100871.69;5037672;28;45431;-58
2022/12/28 11:50:33;;;;;;;;;1.00;1.00;;;;;20.85;39.11;100865.53;5019695;28;45387;-60
2022/12/28 11:53:00;;;;;;;;;0.75;0.75;;;;;20.85;38.88;100864.72;5013015;28;45382;-56
2022/12/28 11:55:25;;;;;;;;;1.00;1.00;;;;;20.84;39.20;100857.75;5037563;28;45242;-59